Etusivu
METAR-TAF:

METAR-TAF

Lentoasemat :

Niamey, Niger

Diori Hamanin kansainvälinen lentoasema

Leveyspiiri: 13-29N, Pituuspiiri: 002-10E, korkeus merenpinnasta: 223 m

Tämänhetkinen sää

Tämä raportti tehtiin 1 tunti ja 13 minuuttia sitten, kello 19.00 UTC
Tuuli 4 kn kaakosta
Lämpötila 37°C
Kosteus 24%
Ilmanpaine 1008 hPa
Näkyvyys: 7000 m

METAR: DRRN 251900Z 13004KT 7000 NSC 37/13 Q1008

Aika: 21:13 (20:13 UTC)

Sääennuste

Tämä raportti tehtiin 3 tuntia ja 13 minuuttia sitten, kello 17.00 UTC
Ennuste voimassa 25. päivästä klo 18 UTC - 26. päivään klo 24 UTC
Tuuli 8 kn etelästä/lounaasta
Näkyvyys: 8000 m
Todennäköisyys 40%
26. päivästä klo 01 UTC - 26. päivään klo 05 UTC
Tuuli 25 kn eri suunnista puuskistuen 40 kn:hen
Näkyvyys: 0800 m
Hajanaisia pilviä 3300 ft:n korkeudessa
Muutamia pilviä 4500 ft:n korkeudessa, Cumulonimbus.
hiekkatuisku, ukkosmyrsky, sadetta

TAF: DRRN 251700Z 2518/2624 20008KT 8000 NSC PROB40 2601/2605 VRB25G40KT 0800 BLSA TSRA SCT033 FEW045CB

Säähavainnot ja -ennusteet yli 4000 lentoasemalta (METAR- ja TAF-raportit).

Käytössä olevat sääasemat on merkitty karttaan keltaisilla ja punaisilla pisteillä.

Aseta hiiri pisteen päälle nähdäksesi sääaseman nimen.

Klikkaa sitten nähdäksesi säähavainnot ja -ennusteet.

Kartan vaihtaminen: klikkaa mustalla rastilla varustettuja vihreitä pisteitä, niin voit zoomata sisään; viivalla varustettua vihreää pistettä, niin voit zoomata ulos tai vihreitä nuolia, niin pääset viereisille kartoille.


METAR-TAF: